createdAt,value
2023-03-06T00:02:38.290Z,1.70
2023-03-06T00:07:59.779Z,1.40
2023-03-06T00:13:22.988Z,1.40
2023-03-06T00:18:44.296Z,1.98
2023-03-06T00:24:06.150Z,1.65
2023-03-06T00:29:27.388Z,1.60
2023-03-06T00:34:56.211Z,1.17
2023-03-06T00:40:20.354Z,1.48
2023-03-06T00:51:02.952Z,1.80
2023-03-06T00:56:24.374Z,1.67
2023-03-06T01:01:45.775Z,1.52
2023-03-06T01:07:08.596Z,1.67
2023-03-06T01:12:30.270Z,1.50
2023-03-06T01:17:55.723Z,1.80
2023-03-06T01:23:17.078Z,1.70
2023-03-06T01:28:39.068Z,1.65
2023-03-06T01:34:00.464Z,1.60
2023-03-06T01:39:21.864Z,1.70
2023-03-06T01:45:12.656Z,1.80
2023-03-06T01:50:34.054Z,1.67
2023-03-06T01:55:56.070Z,1.63
2023-03-06T02:01:18.387Z,1.80
2023-03-06T02:06:42.057Z,2.00
2023-03-06T02:12:10.350Z,1.98
2023-03-06T02:17:31.814Z,1.80
2023-03-06T02:23:17.045Z,1.98
2023-03-06T02:28:38.764Z,1.50
2023-03-06T02:34:29.058Z,1.50
2023-03-06T02:40:11.882Z,1.83
2023-03-06T02:45:45.514Z,1.70
2023-03-06T02:51:07.112Z,1.42
2023-03-06T02:56:28.659Z,1.30
2023-03-06T03:01:51.697Z,1.27
2023-03-06T03:07:13.173Z,1.15
2023-03-06T03:12:34.679Z,1.10
2023-03-06T03:17:56.092Z,1.10
2023-03-06T03:23:17.507Z,1.08
2023-03-06T03:28:38.698Z,1.10
2023-03-06T03:34:01.130Z,0.90
2023-03-06T03:39:25.496Z,1.13
2023-03-06T03:44:47.050Z,1.10
2023-03-06T03:50:10.740Z,1.05
2023-03-06T03:55:32.323Z,1.00
2023-03-06T04:00:54.378Z,1.10
2023-03-06T04:06:15.931Z,1.20
2023-03-06T04:11:37.503Z,1.35
2023-03-06T04:16:59.958Z,1.15
2023-03-06T04:22:21.480Z,1.38
2023-03-06T04:27:43.088Z,1.50
2023-03-06T04:33:06.150Z,1.55
2023-03-06T04:38:27.903Z,4.45
2023-03-06T04:43:50.331Z,3.15
2023-03-06T04:49:11.523Z,1.77
2023-03-06T04:54:33.175Z,1.48
2023-03-06T04:59:54.425Z,1.52
2023-03-06T05:05:17.068Z,1.40
2023-03-06T05:10:38.194Z,1.40
2023-03-06T05:16:07.262Z,1.60
2023-03-06T05:21:28.541Z,1.63
2023-03-06T05:26:49.889Z,1.48
2023-03-06T05:32:12.150Z,1.30
2023-03-06T05:37:33.747Z,1.40
2023-03-06T05:42:54.945Z,1.42
2023-03-06T05:48:16.396Z,1.02
2023-03-06T05:53:37.781Z,1.40
2023-03-06T05:58:58.933Z,1.38
2023-03-06T06:04:20.126Z,1.83
2023-03-06T06:09:41.693Z,1.48
2023-03-06T06:15:03.313Z,1.35
2023-03-06T06:20:25.158Z,1.98
2023-03-06T06:25:46.407Z,1.73
2023-03-06T06:31:12.063Z,1.35
2023-03-06T06:36:33.442Z,1.40
2023-03-06T06:42:21.732Z,1.45
2023-03-06T06:47:35.338Z,1.67
2023-03-06T06:52:56.217Z,1.60
2023-03-06T06:58:17.337Z,1.73
2023-03-06T07:03:39.019Z,2.28
2023-03-06T07:09:00.024Z,1.80
2023-03-06T07:14:21.560Z,1.98
2023-03-06T07:19:43.150Z,2.15
2023-03-06T07:25:06.780Z,2.28
2023-03-06T07:30:28.206Z,2.30
2023-03-06T07:35:49.953Z,2.42
2023-03-06T07:41:12.904Z,2.47
2023-03-06T07:46:34.383Z,2.05
2023-03-06T07:51:55.772Z,2.20
2023-03-06T07:57:17.259Z,2.08
2023-03-06T08:02:38.640Z,3.20
2023-03-06T08:07:59.940Z,2.92
2023-03-06T08:13:21.482Z,2.80
2023-03-06T08:18:45.053Z,2.13
2023-03-06T08:24:08.590Z,1.63
2023-03-06T08:29:31.026Z,1.60
2023-03-06T08:34:53.588Z,1.63
2023-03-06T08:40:14.967Z,1.40
2023-03-06T08:45:36.176Z,1.58
2023-03-06T08:50:57.570Z,1.50
2023-03-06T08:56:32.075Z,1.60
2023-03-06T09:01:53.559Z,1.45
2023-03-06T09:07:15.027Z,1.58
2023-03-06T09:12:48.902Z,1.80
2023-03-06T09:18:11.464Z,1.63
2023-03-06T09:23:33.938Z,2.30
2023-03-06T09:28:55.189Z,1.35
2023-03-06T09:34:17.068Z,1.50
